Ash, Missouri
Current Conditions -  °F | °C
As of 9:35 AM on Sunday 23 Nov 2014 (Local Time) from KVER Reporting Station
Overcast Overcast  
Wind Chill: 55°   Ceiling: 800
Heat Index: 55°   Visibility: 10mi
Dew Point: 54°   Wind: 10mph
Humidity: 98%   Direction: 150°SSE
Pressure: 29.55"   Gusts: NA
Location:  39.4792°N, 92.217°W
Report Text: KVER 231535Z AUTO 15009KT 10SM OVC008 13/12 A2955 RMK AO2 T01260123
Loading
Personal Weather Stations






























Interactive Weather Map New forecast layout! Learn more

10-Day Weather Forecast

Advertisements
Track Severe Weather on mobile